createdAt,value
2019-01-05T00:00:41.304Z,7.50
2019-01-05T00:03:47.223Z,7.50
2019-01-05T00:06:42.401Z,7.50
2019-01-05T00:09:34.498Z,7.60
2019-01-05T00:12:29.800Z,7.60
2019-01-05T00:15:17.959Z,7.50
2019-01-05T00:18:05.806Z,7.60
2019-01-05T00:20:54.206Z,7.60
2019-01-05T00:23:44.561Z,7.50
2019-01-05T00:26:33.050Z,7.60
2019-01-05T00:29:31.500Z,7.60
2019-01-05T00:32:42.763Z,7.60
2019-01-05T00:35:37.531Z,7.70
2019-01-05T00:38:27.074Z,7.70
2019-01-05T00:41:22.069Z,7.70
2019-01-05T00:44:23.840Z,7.80
2019-01-05T00:47:10.370Z,7.80
2019-01-05T00:50:04.088Z,7.80
2019-01-05T00:52:52.581Z,7.80
2019-01-05T00:55:42.826Z,7.90
2019-01-05T00:58:31.354Z,7.90
2019-01-05T01:01:33.525Z,7.90
2019-01-05T01:04:35.111Z,7.90
2019-01-05T01:07:23.184Z,7.90
2019-01-05T01:10:15.897Z,8.00
2019-01-05T01:13:05.406Z,8.00
2019-01-05T01:15:57.747Z,8.00
2019-01-05T01:18:47.162Z,8.00
2019-01-05T01:21:35.269Z,8.00
2019-01-05T01:24:33.649Z,8.10
2019-01-05T01:27:29.675Z,8.00
2019-01-05T01:30:18.037Z,8.10
2019-01-05T01:33:07.975Z,8.10
2019-01-05T01:36:00.450Z,8.00
2019-01-05T01:39:08.223Z,8.00
2019-01-05T01:42:13.605Z,8.00
2019-01-05T01:45:05.735Z,8.00
2019-01-05T01:48:05.864Z,8.00
2019-01-05T01:50:54.802Z,8.10
2019-01-05T01:53:43.065Z,8.10
2019-01-05T01:56:32.968Z,8.10
2019-01-05T01:59:42.629Z,8.10
2019-01-05T02:02:36.179Z,8.10
2019-01-05T02:05:24.803Z,8.10
2019-01-05T02:08:14.899Z,8.10
2019-01-05T02:11:07.793Z,8.10
2019-01-05T02:14:00.427Z,8.10
2019-01-05T02:17:07.337Z,8.10
2019-01-05T02:20:15.374Z,8.10
2019-01-05T02:23:39.940Z,8.10
2019-01-05T02:26:43.089Z,8.10
2019-01-05T02:30:30.995Z,8.10
2019-01-05T02:34:00.363Z,8.10
2019-01-05T02:37:29.156Z,8.10
2019-01-05T02:41:13.669Z,8.10
2019-01-05T02:44:31.468Z,8.10
2019-01-05T02:48:08.240Z,8.10
2019-01-05T02:51:53.251Z,8.10
2019-01-05T02:55:16.889Z,8.10
2019-01-05T02:58:45.152Z,8.00
2019-01-05T03:02:39.993Z,8.00
2019-01-05T03:05:58.251Z,8.00
2019-01-05T03:09:15.761Z,8.00
2019-01-05T03:13:00.369Z,8.00
2019-01-05T03:16:34.322Z,8.10
2019-01-05T03:19:59.829Z,8.10
2019-01-05T03:23:05.007Z,8.10
2019-01-05T03:26:36.336Z,8.10
2019-01-05T03:29:58.993Z,8.10
2019-01-05T03:33:42.267Z,8.10
2019-01-05T03:37:19.893Z,8.10
2019-01-05T03:41:04.219Z,8.10
2019-01-05T03:44:35.099Z,8.10
2019-01-05T03:48:04.912Z,8.10
2019-01-05T03:51:28.685Z,8.10
2019-01-05T03:54:55.023Z,8.10
2019-01-05T03:58:19.042Z,8.10
2019-01-05T04:01:50.342Z,8.00
2019-01-05T04:05:53.819Z,8.00
2019-01-05T04:09:28.804Z,8.00
2019-01-05T04:15:47.650Z,8.00
2019-01-05T04:19:11.050Z,8.00
2019-01-05T04:22:54.765Z,8.00
2019-01-05T04:26:17.654Z,8.00
2019-01-05T04:29:40.542Z,8.00
2019-01-05T04:33:25.922Z,8.10
2019-01-05T04:36:48.279Z,8.10
2019-01-05T04:40:35.414Z,8.00
2019-01-05T04:44:26.672Z,8.10
2019-01-05T04:47:58.001Z,8.00
2019-01-05T04:51:12.900Z,8.10
2019-01-05T04:54:39.275Z,8.10
2019-01-05T04:58:37.703Z,8.10
2019-01-05T05:02:15.822Z,8.10
2019-01-05T05:05:38.394Z,8.00
2019-01-05T05:09:25.000Z,8.10
2019-01-05T05:13:05.956Z,8.10
2019-01-05T05:16:53.660Z,8.10
2019-01-05T05:20:20.064Z,8.10
2019-01-05T05:24:20.324Z,8.10
2019-01-05T05:27:49.101Z,8.10
2019-01-05T05:31:08.185Z,8.10
2019-01-05T05:34:40.769Z,8.10
2019-01-05T05:38:13.590Z,8.10
2019-01-05T05:42:02.272Z,8.10
2019-01-05T05:45:56.786Z,8.00
2019-01-05T05:49:47.963Z,8.00
2019-01-05T05:53:21.136Z,8.00
2019-01-05T05:57:02.709Z,8.00
2019-01-05T06:00:49.871Z,8.00
2019-01-05T06:04:27.511Z,8.10
2019-01-05T06:07:53.912Z,8.10
2019-01-05T06:11:51.178Z,8.10
2019-01-05T06:15:15.035Z,8.10
2019-01-05T06:18:55.681Z,8.10
2019-01-05T06:22:10.053Z,8.10
2019-01-05T06:25:33.068Z,8.10
2019-01-05T06:29:03.833Z,8.10
2019-01-05T06:32:41.921Z,8.10
2019-01-05T06:36:04.419Z,8.10
2019-01-05T06:39:34.468Z,8.10
2019-01-05T06:42:49.032Z,8.10
2019-01-05T06:46:13.884Z,8.20
2019-01-05T06:50:07.974Z,8.10
2019-01-05T06:53:31.903Z,8.10
2019-01-05T06:57:03.994Z,8.10
2019-01-05T07:00:42.042Z,8.10
2019-01-05T07:04:05.987Z,8.10
2019-01-05T07:07:42.816Z,8.20
2019-01-05T07:11:17.804Z,8.10
2019-01-05T07:14:49.081Z,8.10
2019-01-05T07:18:26.662Z,8.10
2019-01-05T07:22:05.351Z,8.20
2019-01-05T07:25:34.212Z,8.20
2019-01-05T07:29:17.050Z,8.10
2019-01-05T07:33:05.597Z,8.10
2019-01-05T07:36:38.965Z,8.10
2019-01-05T07:40:11.088Z,8.20
2019-01-05T07:43:56.399Z,8.10
2019-01-05T07:47:41.230Z,8.10
2019-01-05T07:51:15.457Z,8.20
2019-01-05T07:54:46.778Z,8.20
2019-01-05T07:58:23.047Z,8.20
2019-01-05T08:02:00.297Z,8.10
2019-01-05T08:06:04.182Z,8.10
2019-01-05T08:09:45.056Z,8.10
2019-01-05T08:13:09.290Z,8.10
2019-01-05T08:16:35.136Z,8.10
2019-01-05T08:20:00.368Z,8.10
2019-01-05T08:23:29.621Z,8.20
2019-01-05T08:27:19.871Z,8.20
2019-01-05T08:31:00.485Z,8.20
2019-01-05T08:34:45.968Z,8.20
2019-01-05T08:38:37.522Z,8.30
2019-01-05T08:41:57.226Z,8.30
2019-01-05T08:45:40.111Z,8.30
2019-01-05T08:49:09.361Z,8.20
2019-01-05T08:52:24.226Z,8.20
2019-01-05T08:56:14.454Z,8.20
2019-01-05T08:59:57.911Z,8.30
2019-01-05T09:03:20.355Z,8.30
2019-01-05T09:06:59.851Z,8.30
2019-01-05T09:10:22.847Z,8.30
2019-01-05T09:13:52.349Z,8.30
2019-01-05T09:17:35.008Z,8.30
2019-01-05T09:21:12.017Z,8.30
2019-01-05T09:24:53.843Z,8.30
2019-01-05T09:28:35.214Z,8.40
2019-01-05T09:32:19.588Z,8.40
2019-01-05T09:36:03.956Z,8.30
2019-01-05T09:39:39.544Z,8.30
2019-01-05T09:43:19.733Z,8.30
2019-01-05T09:47:07.072Z,8.30
2019-01-05T09:50:41.547Z,8.30
2019-01-05T09:54:10.575Z,8.20
2019-01-05T09:57:51.147Z,8.10
2019-01-05T10:01:48.844Z,8.10
2019-01-05T10:05:09.634Z,8.10
2019-01-05T10:09:10.134Z,8.20
2019-01-05T10:13:00.067Z,8.20
2019-01-05T10:16:27.159Z,8.20
2019-01-05T10:19:58.230Z,8.20
2019-01-05T10:23:37.044Z,8.20
2019-01-05T10:27:11.166Z,8.30
2019-01-05T10:30:35.546Z,8.30
2019-01-05T10:34:25.425Z,8.30
2019-01-05T10:37:59.559Z,8.20
2019-01-05T10:41:35.602Z,8.20
2019-01-05T10:45:02.471Z,8.20
2019-01-05T10:48:29.184Z,8.20
2019-01-05T10:52:01.468Z,8.20
2019-01-05T10:55:37.397Z,8.20
2019-01-05T10:58:54.783Z,8.20
2019-01-05T11:02:29.888Z,8.20
2019-01-05T11:06:14.077Z,8.20
2019-01-05T11:09:28.885Z,8.30
2019-01-05T11:13:15.371Z,8.20
2019-01-05T11:16:41.246Z,8.20
2019-01-05T11:20:05.581Z,8.20
2019-01-05T11:23:37.531Z,8.20
2019-01-05T11:27:08.231Z,8.20
2019-01-05T11:30:49.439Z,8.20
2019-01-05T11:34:41.604Z,8.20
2019-01-05T11:38:03.412Z,8.10
2019-01-05T11:41:48.559Z,8.20
2019-01-05T11:45:16.228Z,8.10
2019-01-05T11:48:53.372Z,8.20
2019-01-05T11:52:22.262Z,8.20
2019-01-05T11:55:58.612Z,8.20
2019-01-05T11:59:18.964Z,8.20
2019-01-05T12:02:39.559Z,8.30
2019-01-05T12:06:22.684Z,8.40
2019-01-05T12:09:54.983Z,8.50
2019-01-05T12:13:24.928Z,8.50
2019-01-05T12:17:02.923Z,8.50
2019-01-05T12:20:50.712Z,8.50
2019-01-05T12:24:04.385Z,8.50
2019-01-05T12:27:40.184Z,8.50
2019-01-05T12:31:33.585Z,8.50
2019-01-05T12:34:59.369Z,8.50
2019-01-05T12:38:34.583Z,8.60
2019-01-05T12:42:03.640Z,8.50
2019-01-05T12:45:33.488Z,8.60
2019-01-05T12:48:54.903Z,8.60
2019-01-05T12:52:42.241Z,8.60
2019-01-05T12:56:25.190Z,8.60
2019-01-05T13:00:16.563Z,8.60
2019-01-05T13:04:05.216Z,8.60
2019-01-05T13:07:58.871Z,8.60
2019-01-05T13:11:08.430Z,8.60
2019-01-05T13:14:11.816Z,8.60
2019-01-05T13:17:24.382Z,8.60
2019-01-05T13:20:44.656Z,8.60
2019-01-05T13:24:09.335Z,8.70
2019-01-05T13:27:37.145Z,8.60
2019-01-05T13:31:24.575Z,8.60
2019-01-05T13:35:08.735Z,8.60
2019-01-05T13:39:00.844Z,8.70
2019-01-05T13:42:36.457Z,8.70
2019-01-05T13:46:21.118Z,8.60
2019-01-05T13:50:02.218Z,8.50
2019-01-05T13:53:11.514Z,8.50
2019-01-05T13:56:11.369Z,8.50
2019-01-05T13:58:59.383Z,8.50
2019-01-05T14:01:47.556Z,8.50
2019-01-05T14:04:37.846Z,8.40
2019-01-05T14:07:25.930Z,8.40
2019-01-05T14:10:13.877Z,8.40
2019-01-05T14:13:09.921Z,8.30
2019-01-05T14:15:59.411Z,8.30
2019-01-05T14:18:47.713Z,8.30
2019-01-05T14:21:49.030Z,8.30
2019-01-05T14:24:37.207Z,8.30
2019-01-05T14:27:29.331Z,8.30
2019-01-05T14:30:17.760Z,8.30
2019-01-05T14:33:10.106Z,8.30
2019-01-05T14:35:58.174Z,8.30
2019-01-05T14:38:50.555Z,8.30
2019-01-05T14:41:39.842Z,8.20
2019-01-05T14:44:28.196Z,8.20
2019-01-05T14:47:26.781Z,8.20
2019-01-05T14:50:22.193Z,8.10
2019-01-05T14:53:23.471Z,8.10
2019-01-05T14:56:31.140Z,8.10
2019-01-05T14:59:35.385Z,8.10
2019-01-05T15:02:36.610Z,8.10
2019-01-05T15:05:24.528Z,8.10
2019-01-05T15:08:13.963Z,8.10
2019-01-05T15:11:02.213Z,8.10
2019-01-05T15:13:55.417Z,8.10
2019-01-05T15:16:53.804Z,8.10
2019-01-05T15:19:45.923Z,8.10
2019-01-05T15:22:37.956Z,8.10
2019-01-05T15:25:25.847Z,8.10
2019-01-05T15:28:14.055Z,8.10
2019-01-05T15:31:02.134Z,8.10
2019-01-05T15:34:03.404Z,8.10
2019-01-05T15:36:58.801Z,8.10
2019-01-05T15:40:03.388Z,8.10
2019-01-05T15:43:00.114Z,8.10
2019-01-05T15:46:02.806Z,8.10
2019-01-05T15:49:04.208Z,8.10
2019-01-05T15:52:11.804Z,8.10
2019-01-05T15:55:11.301Z,8.00
2019-01-05T15:57:59.102Z,7.90
2019-01-05T16:00:48.332Z,7.90
2019-01-05T16:03:36.512Z,7.80
2019-01-05T16:06:24.929Z,7.80
2019-01-05T16:09:14.202Z,7.70
2019-01-05T16:12:12.688Z,7.70
2019-01-05T16:15:01.897Z,7.60
2019-01-05T16:17:53.074Z,7.60
2019-01-05T16:20:40.960Z,7.50
2019-01-05T16:23:29.679Z,7.60
2019-01-05T16:26:19.067Z,7.50
2019-01-05T16:29:07.605Z,7.50
2019-01-05T16:31:56.875Z,7.50
2019-01-05T16:34:45.040Z,7.40
2019-01-05T16:37:40.204Z,7.50
2019-01-05T16:40:47.897Z,7.40
2019-01-05T16:43:55.810Z,7.40
2019-01-05T16:46:44.697Z,7.30
2019-01-05T16:49:40.614Z,7.30
2019-01-05T16:52:48.116Z,7.30
2019-01-05T16:55:45.706Z,7.20
2019-01-05T16:58:47.093Z,7.30
2019-01-05T17:01:52.978Z,7.30
2019-01-05T17:04:40.996Z,7.30
2019-01-05T17:07:29.147Z,7.30
2019-01-05T17:10:27.742Z,7.30
2019-01-05T17:13:22.871Z,7.40
2019-01-05T17:16:12.216Z,7.40
2019-01-05T17:18:54.603Z,7.50
2019-01-05T17:21:44.031Z,7.50
2019-01-05T17:24:31.918Z,7.50
2019-01-05T17:27:24.441Z,7.40
2019-01-05T17:30:09.443Z,7.50
2019-01-05T17:32:57.618Z,7.50
2019-01-05T17:35:45.884Z,7.50
2019-01-05T17:38:35.194Z,7.50
2019-01-05T17:41:24.992Z,7.50
2019-01-05T17:44:17.253Z,7.50
2019-01-05T17:47:04.265Z,7.50
2019-01-05T17:49:53.781Z,7.50
2019-01-05T17:53:00.855Z,7.50
2019-01-05T17:55:48.730Z,7.50
2019-01-05T17:58:36.856Z,7.50
2019-01-05T18:01:25.084Z,7.40
2019-01-05T18:04:31.195Z,7.40
2019-01-05T18:07:39.072Z,7.40
2019-01-05T18:10:44.186Z,7.40
2019-01-05T18:13:42.813Z,7.40
2019-01-05T18:16:32.123Z,7.40
2019-01-05T18:19:34.884Z,7.50
2019-01-05T18:22:26.538Z,7.50
2019-01-05T18:25:14.867Z,7.50
2019-01-05T18:28:06.422Z,7.40
2019-01-05T18:30:54.341Z,7.40
2019-01-05T18:33:49.724Z,7.40
2019-01-05T18:36:37.917Z,7.40
2019-01-05T18:39:30.283Z,7.30
2019-01-05T18:42:18.499Z,7.20
2019-01-05T18:45:07.863Z,7.20
2019-01-05T18:48:03.491Z,7.10
2019-01-05T18:51:02.095Z,7.10
2019-01-05T18:54:08.116Z,7.20
2019-01-05T18:56:56.382Z,7.20
2019-01-05T18:59:44.418Z,7.10
2019-01-05T19:02:35.020Z,7.10
2019-01-05T19:05:36.925Z,7.00
2019-01-05T19:08:26.321Z,7.00
2019-01-05T19:11:20.233Z,7.00
2019-01-05T19:14:08.223Z,7.00
2019-01-05T19:16:56.209Z,7.00
2019-01-05T19:19:44.556Z,6.90
2019-01-05T19:22:32.628Z,6.90
2019-01-05T19:25:20.712Z,6.90
2019-01-05T19:28:05.430Z,7.00
2019-01-05T19:31:06.768Z,7.00
2019-01-05T19:33:56.133Z,7.00
2019-01-05T19:36:40.605Z,7.00
2019-01-05T19:39:28.613Z,7.10
2019-01-05T19:42:16.944Z,7.10
2019-01-05T19:45:05.975Z,7.10
2019-01-05T19:47:51.227Z,7.10
2019-01-05T19:50:41.023Z,7.10
2019-01-05T19:53:42.353Z,7.10
2019-01-05T19:56:34.544Z,7.10
2019-01-05T19:59:22.538Z,7.10
2019-01-05T20:02:11.019Z,7.10
2019-01-05T20:04:59.244Z,7.20
2019-01-05T20:08:03.556Z,7.20
2019-01-05T20:10:53.666Z,7.20
2019-01-05T20:13:48.714Z,7.20
2019-01-05T20:16:36.879Z,7.20
2019-01-05T20:19:29.193Z,7.20
2019-01-05T20:22:17.116Z,7.20
2019-01-05T20:25:11.273Z,7.20
2019-01-05T20:28:00.606Z,7.20
2019-01-05T20:30:49.021Z,7.20
2019-01-05T20:33:42.426Z,7.20
2019-01-05T20:36:30.540Z,7.20
2019-01-05T20:39:22.951Z,7.10
2019-01-05T20:42:30.513Z,7.10
2019-01-05T20:45:20.728Z,7.10
2019-01-05T20:48:10.079Z,7.10
2019-01-05T20:51:14.770Z,7.10
2019-01-05T20:54:04.072Z,7.10
2019-01-05T20:56:52.418Z,7.00
2019-01-05T20:59:45.780Z,7.10
2019-01-05T21:02:47.395Z,7.10
2019-01-05T21:05:39.441Z,7.10
2019-01-05T21:08:36.369Z,7.20
2019-01-05T21:11:24.685Z,7.10
2019-01-05T21:14:12.864Z,7.10
2019-01-05T21:17:14.430Z,7.10
2019-01-05T21:20:02.673Z,7.10
2019-01-05T21:23:08.275Z,7.10
2019-01-05T21:26:03.444Z,7.20
2019-01-05T21:28:51.679Z,7.10
2019-01-05T21:31:52.910Z,7.10
2019-01-05T21:34:40.997Z,7.10
2019-01-05T21:37:30.278Z,7.00
2019-01-05T21:40:28.556Z,7.10
2019-01-05T21:43:28.183Z,7.10
2019-01-05T21:46:15.916Z,7.10
2019-01-05T21:49:08.200Z,7.10
2019-01-05T21:51:56.101Z,7.10
2019-01-05T21:55:03.563Z,7.00
2019-01-05T21:57:53.106Z,7.00
2019-01-05T22:00:51.632Z,7.00
2019-01-05T22:03:39.561Z,7.10
2019-01-05T22:06:27.676Z,7.10
2019-01-05T22:09:35.299Z,7.10
2019-01-05T22:12:18.984Z,7.00
2019-01-05T22:15:14.144Z,7.00
2019-01-05T22:18:02.975Z,7.00
2019-01-05T22:20:51.013Z,7.00
2019-01-05T22:23:58.375Z,7.00
2019-01-05T22:26:59.800Z,7.00
2019-01-05T22:29:44.521Z,7.10
2019-01-05T22:32:39.803Z,7.10
2019-01-05T22:35:27.836Z,7.10
2019-01-05T22:38:18.638Z,7.10
2019-01-05T22:41:13.254Z,7.10
2019-01-05T22:44:01.146Z,7.10
2019-01-05T22:46:50.377Z,7.10
2019-01-05T22:49:38.522Z,7.10
2019-01-05T22:52:37.077Z,7.10
2019-01-05T22:55:29.052Z,7.10
2019-01-05T22:58:18.323Z,7.10
2019-01-05T23:01:14.371Z,7.10
2019-01-05T23:04:12.906Z,7.10
2019-01-05T23:07:02.166Z,7.10
2019-01-05T23:10:03.350Z,7.10
2019-01-05T23:12:55.115Z,7.10
2019-01-05T23:15:44.423Z,7.00
2019-01-05T23:18:32.313Z,7.00
2019-01-05T23:21:33.985Z,6.90
2019-01-05T23:24:20.291Z,6.90
2019-01-05T23:27:18.469Z,6.80
2019-01-05T23:30:07.707Z,6.80
2019-01-05T23:32:51.266Z,6.80
2019-01-05T23:35:40.557Z,6.80
2019-01-05T23:38:29.493Z,6.80
2019-01-05T23:41:20.166Z,6.80
2019-01-05T23:44:12.208Z,6.70
2019-01-05T23:46:57.307Z,6.70
2019-01-05T23:49:52.810Z,6.80
2019-01-05T23:52:51.219Z,6.80
2019-01-05T23:55:39.372Z,6.90
2019-01-05T23:58:41.507Z,7.00
